Time;durP1;ratioP1;P1;durP2;ratioP2;P2;SDS_P1;SDS_P2;PMS_P1;PMS_P2;Temp;Humidity;BMP_temperature;BMP_pressure;BME280_temperature;BME280_humidity;BME280_pressure;Samples;Min_cycle;Max_cycle;Signal;HPM_P1;HPM_P2
2021/12/02 00:01:27;;;;;;;2.88;0.82;;;;;;;11.48;63.19;101453.94;4904879;29;20044;-70
2021/12/02 00:03:56;;;;;;;4.07;0.90;;;;;;;11.46;63.13;101450.34;4918615;29;20051;-70
2021/12/02 00:06:24;;;;;;;10.25;2.28;;;;;;;11.48;63.09;101457.47;4930243;29;20043;-70
2021/12/02 00:08:53;;;;;;;5.93;1.38;;;;;;;11.54;63.10;101462.00;4919746;29;20504;-70
2021/12/02 00:11:21;;;;;;;5.53;2.22;;;;;;;11.58;62.65;101466.50;4913311;29;20048;-70
2021/12/02 00:13:55;;;;;;;6.05;1.80;;;;;;;11.62;62.62;101463.03;4916846;29;20127;-70
2021/12/02 00:16:30;;;;;;;7.22;2.10;;;;;;;11.66;62.61;101462.28;4927571;29;20179;-70
2021/12/02 00:21:45;;;;;;;6.35;2.20;;;;;;;11.63;62.79;101458.66;4931198;29;20134;-70
2021/12/02 00:24:18;;;;;;;7.70;1.88;;;;;;;11.60;62.29;101459.50;4906363;29;20458;-70
2021/12/02 00:26:48;;;;;;;7.63;1.85;;;;;;;11.55;62.88;101456.72;4904145;29;20056;-70
2021/12/02 00:29:19;;;;;;;3.97;1.60;;;;;;;11.54;63.17;101454.06;4896005;29;20040;-70
2021/12/02 00:31:50;;;;;;;6.65;1.77;;;;;;;11.52;63.05;101455.78;4894014;29;20071;-70
2021/12/02 00:34:19;;;;;;;7.72;1.30;;;;;;;11.48;63.71;101446.00;4893557;29;20053;-70
2021/12/02 00:36:46;;;;;;;8.10;1.80;;;;;;;11.45;63.51;101445.91;4903783;29;20040;-70
2021/12/02 00:39:16;;;;;;;5.43;1.80;;;;;;;11.44;64.05;101444.13;4910014;29;20050;-70
2021/12/02 00:41:44;;;;;;;7.35;1.77;;;;;;;11.42;63.39;101449.38;4893560;29;20041;-70
2021/12/02 00:44:14;;;;;;;8.32;1.98;;;;;;;11.43;63.90;101437.94;4896546;29;20058;-70
2021/12/02 00:46:43;;;;;;;5.10;1.70;;;;;;;11.41;64.12;101441.44;4895010;29;20072;-70
2021/12/02 00:49:13;;;;;;;5.13;1.40;;;;;;;11.41;64.07;101433.50;4894358;29;20470;-70
2021/12/02 00:51:45;;;;;;;6.18;1.50;;;;;;;11.41;63.39;101441.44;4905993;29;20100;-70
2021/12/02 00:54:14;;;;;;;9.95;2.80;;;;;;;11.44;63.29;101442.38;4894229;29;20048;-70
2021/12/02 00:56:42;;;;;;;10.98;3.08;;;;;;;11.43;63.99;101445.88;4893250;29;20089;-70
2021/12/02 00:59:10;;;;;;;4.60;1.20;;;;;;;11.39;64.34;101443.13;4893646;29;20045;-70
2021/12/02 01:01:38;;;;;;;10.15;1.85;;;;;;;11.39;64.27;101446.69;4896662;29;20047;-70
2021/12/02 01:04:12;;;;;;;8.18;1.77;;;;;;;11.41;64.45;101447.63;4893729;29;20061;-69
2021/12/02 01:06:40;;;;;;;13.15;4.35;;;;;;;11.45;64.39;101449.47;4908968;29;20104;-69
2021/12/02 01:09:09;;;;;;;6.72;1.92;;;;;;;11.56;63.82;101444.41;4893230;29;20049;-70
2021/12/02 01:11:37;;;;;;;6.03;2.13;;;;;;;11.62;64.16;101433.97;4894593;29;20148;-70
2021/12/02 01:14:06;;;;;;;12.00;2.72;;;;;;;11.63;63.31;101426.91;4877112;29;21314;-70
2021/12/02 01:16:34;;;;;;;15.85;3.47;;;;;;;11.64;63.54;101437.53;4906830;29;20045;-70
2021/12/02 01:19:02;;;;;;;8.10;2.25;;;;;;;11.69;63.68;101434.97;4899267;29;20063;-70
2021/12/02 01:21:31;;;;;;;7.10;2.40;;;;;;;11.74;63.37;101433.38;4900151;29;20049;-70
2021/12/02 01:24:02;;;;;;;6.70;2.30;;;;;;;11.73;63.59;101427.19;4915971;29;20575;-70
2021/12/02 01:26:31;;;;;;;11.63;2.88;;;;;;;11.71;63.92;101426.22;4926690;29;20075;-70
2021/12/02 01:29:00;;;;;;;7.93;2.65;;;;;;;11.68;63.93;101431.47;4912393;29;20047;-69
2021/12/02 01:31:31;;;;;;;6.70;2.47;;;;;;;11.64;63.86;101436.66;4911436;29;20159;-70
2021/12/02 01:34:02;;;;;;;8.23;3.63;;;;;;;11.61;63.91;101428.66;4912388;29;20123;-70
2021/12/02 01:36:37;;;;;;;8.07;3.03;;;;;;;11.54;64.34;101432.91;4926605;29;20036;-69
2021/12/02 01:39:05;;;;;;;5.75;2.05;;;;;;;11.52;64.58;101434.63;4912382;29;20049;-70
2021/12/02 01:41:37;;;;;;;5.05;2.13;;;;;;;11.46;64.72;101431.84;4919487;29;20047;-70
2021/12/02 01:44:10;;;;;;;7.68;2.08;;;;;;;11.46;64.90;101435.38;4930595;29;20143;-70
2021/12/02 01:46:39;;;;;;;10.90;2.58;;;;;;;11.43;64.75;101430.00;4914892;29;20060;-70
2021/12/02 01:49:09;;;;;;;5.75;1.85;;;;;;;11.40;64.59;101435.25;4915492;29;20123;-70
2021/12/02 01:51:42;;;;;;;8.30;1.98;;;;;;;11.40;64.74;101439.63;4914957;29;20040;-69
2021/12/02 01:54:11;;;;;;;5.43;1.90;;;;;;;11.38;65.08;101423.72;4929836;29;20059;-70
2021/12/02 01:56:44;;;;;;;6.25;1.95;;;;;;;11.39;64.83;101428.16;4924399;29;20135;-70
2021/12/02 01:59:16;;;;;;;6.70;1.67;;;;;;;11.40;65.11;101429.06;4929784;29;20096;-70
2021/12/02 02:01:46;;;;;;;7.47;1.42;;;;;;;11.38;65.25;101426.38;4914390;29;20044;-69
2021/12/02 02:04:13;;;;;;;4.13;1.90;;;;;;;11.35;65.28;101422.78;4897489;29;20466;-70
2021/12/02 02:06:55;;;;;;;5.32;1.90;;;;;;;11.33;64.96;101428.03;4917531;29;20056;-70
2021/12/02 02:09:25;;;;;;;8.68;1.60;;;;;;;11.27;65.91;101422.59;4906879;29;20063;-70
2021/12/02 02:11:53;;;;;;;7.13;2.20;;;;;;;11.28;66.01;101426.16;4910524;29;20037;-70
2021/12/02 02:14:21;;;;;;;8.40;2.03;;;;;;;11.25;65.81;101426.06;4878945;29;20409;-70
2021/12/02 02:16:49;;;;;;;9.85;1.90;;;;;;;11.25;66.39;101423.41;4905356;29;20413;-70
2021/12/02 02:19:18;;;;;;;4.95;1.67;;;;;;;11.27;66.17;101421.72;4905443;29;20093;-69
2021/12/02 02:21:47;;;;;;;5.20;1.70;;;;;;;11.31;66.30;101418.28;4879421;29;20051;-70
2021/12/02 02:24:17;;;;;;;7.97;1.75;;;;;;;11.35;65.71;101413.13;4922224;29;20040;-70
2021/12/02 02:26:45;;;;;;;5.75;1.55;;;;;;;11.35;65.97;101418.41;4902193;29;20592;-70
2021/12/02 02:29:15;;;;;;;5.55;1.35;;;;;;;11.34;65.70;101410.44;4926934;29;20047;-69
2021/12/02 02:31:44;;;;;;;7.60;1.05;;;;;;;11.31;66.21;101423.56;4894389;29;20128;-69
2021/12/02 02:34:13;;;;;;;4.22;0.98;;;;;;;11.31;66.43;101428.84;4923146;29;20122;-70
2021/12/02 02:36:50;;;;;;;4.88;1.45;;;;;;;11.32;66.37;101425.34;4933327;29;20091;-69
2021/12/02 02:39:20;;;;;;;6.55;1.02;;;;;;;11.32;66.52;101420.06;4919116;29;20132;-69
2021/12/02 02:41:54;;;;;;;6.80;1.30;;;;;;;11.37;66.52;101419.31;4927961;29;20107;-70
2021/12/02 02:44:23;;;;;;;;;;;;;;;11.37;66.07;101414.00;4929460;29;20142;-70
2021/12/02 02:46:50;;;;;;;7.70;2.05;;;;;;;11.40;66.00;101406.16;4914268;29;20002;-69
2021/12/02 02:49:19;;;;;;;5.82;1.73;;;;;;;11.36;66.14;101412.22;4913827;29;20504;-69
2021/12/02 02:51:47;;;;;;;4.80;1.13;;;;;;;11.37;66.35;101402.53;4915550;29;20043;-69
2021/12/02 02:54:16;;;;;;;5.50;1.60;;;;;;;11.38;66.81;101405.22;4920542;29;20047;-70
2021/12/02 02:56:51;;;;;;;4.63;1.30;;;;;;;11.38;67.29;101414.91;4911044;29;20052;-69
2021/12/02 02:59:28;;;;;;;5.32;1.17;;;;;;;11.41;66.91;101404.41;4929308;29;20166;-69
2021/12/02 03:02:06;;;;;;;2.85;1.05;;;;;;;11.39;67.20;101400.84;4917559;29;20156;-69
2021/12/02 03:04:39;;;;;;;5.47;1.20;;;;;;;11.39;67.59;101398.19;4913358;29;20048;-69
2021/12/02 03:07:11;;;;;;;8.85;1.10;;;;;;;11.46;67.11;101406.31;4914197;29;20044;-69
2021/12/02 03:09:50;;;;;;;3.60;0.90;;;;;;;11.47;67.49;101397.53;4914457;29;20046;-70
2021/12/02 03:12:23;;;;;;;3.60;0.77;;;;;;;11.48;67.77;101404.59;4913843;29;20056;-69
2021/12/02 03:16:37;;;;;;;3.83;1.13;;;;;;;11.51;67.73;101401.09;4928105;29;20051;-70
2021/12/02 03:17:41;;;;;;;5.35;1.20;;;;;;;11.52;67.56;101408.19;4923204;29;20463;-69
2021/12/02 03:20:10;;;;;;;11.80;1.48;;;;;;;11.52;67.62;101398.50;4903290;29;20055;-70
2021/12/02 03:22:38;;;;;;;4.18;1.10;;;;;;;11.54;67.43;101401.19;4930747;29;20095;-69
2021/12/02 03:25:08;;;;;;;8.75;1.33;;;;;;;11.55;66.62;101401.19;4910348;29;20051;-69
2021/12/02 03:27:38;;;;;;;3.40;0.98;;;;;;;11.54;67.07;101410.00;4915935;29;20118;-69
2021/12/02 03:30:07;;;;;;;3.58;0.80;;;;;;;11.50;67.02;101416.06;4923892;29;20048;-70
2021/12/02 03:32:37;;;;;;;5.10;0.65;;;;;;;11.42;66.72;101419.44;4914733;29;20131;-70
2021/12/02 03:35:06;;;;;;;8.13;1.02;;;;;;;11.43;66.69;101426.47;4912922;29;20052;-69
2021/12/02 03:37:35;;;;;;;5.88;0.80;;;;;;;11.41;66.65;101426.47;4922395;29;20498;-69
2021/12/02 03:40:03;;;;;;;5.45;0.70;;;;;;;11.50;66.82;101418.72;4917682;29;20473;-70
2021/12/02 03:42:30;;;;;;;2.38;0.70;;;;;;;11.56;66.76;101424.16;4931450;29;20055;-69
2021/12/02 03:45:00;;;;;;;4.65;0.60;;;;;;;11.61;66.50;101426.03;4904266;29;20040;-69
2021/12/02 03:47:27;;;;;;;5.78;1.00;;;;;;;11.61;66.74;101418.97;4932425;29;20405;-69
2021/12/02 03:49:55;;;;;;;3.72;0.73;;;;;;;11.59;66.98;101420.69;4907119;29;20040;-70
2021/12/02 03:52:22;;;;;;;3.88;0.82;;;;;;;11.54;66.85;101422.34;4896129;29;20485;-69
2021/12/02 03:54:49;;;;;;;7.47;0.80;;;;;;;11.50;66.64;101418.72;4913777;29;20080;-70
2021/12/02 03:57:17;;;;;;;8.18;1.00;;;;;;;11.48;66.59;101420.47;4928160;29;20079;-70
2021/12/02 03:59:45;;;;;;;6.05;1.48;;;;;;;11.47;66.94;101431.88;4929669;29;20059;-69
2021/12/02 04:02:14;;;;;;;11.77;3.65;;;;;;;11.49;66.75;101421.31;4925441;29;20048;-69
2021/12/02 04:04:42;;;;;;;15.63;7.13;;;;;;;11.44;66.52;101428.25;4920297;29;20106;-70
2021/12/02 04:07:10;;;;;;;7.20;2.30;;;;;;;11.35;66.70;101428.06;4927540;29;20143;-69
2021/12/02 04:09:40;;;;;;;9.43;2.47;;;;;;;11.35;66.88;101423.69;4913753;29;20122;-69
2021/12/02 04:12:13;;;;;;;7.00;1.70;;;;;;;11.34;66.79;101427.19;4913240;29;20044;-69
2021/12/02 04:14:46;;;;;;;5.68;1.65;;;;;;;11.27;66.64;101433.19;4907219;29;20140;-69
2021/12/02 04:17:18;;;;;;;4.20;1.30;;;;;;;11.29;66.68;101435.88;4910501;29;20045;-70
2021/12/02 04:19:45;;;;;;;16.08;6.47;;;;;;;11.24;66.86;101432.19;4922872;29;20393;-70
2021/12/02 04:22:13;;;;;;;8.85;2.83;;;;;;;11.13;67.18;101429.31;4917074;29;20416;-69
2021/12/02 04:24:41;;;;;;;17.30;5.82;;;;;;;11.06;67.31;101428.28;4914810;29;20047;-69
2021/12/02 04:27:09;;;;;;;7.45;1.77;;;;;;;11.04;67.77;101426.44;4929052;29;20445;-70
2021/12/02 04:29:36;;;;;;;4.90;1.40;;;;;;;11.05;67.75;101425.59;4926305;29;20253;-70
2021/12/02 04:32:04;;;;;;;8.52;3.17;;;;;;;11.06;67.06;101430.00;4913158;29;20068;-69
2021/12/02 04:34:33;;;;;;;4.57;1.65;;;;;;;11.07;67.76;101432.72;4913211;29;20040;-69
2021/12/02 04:37:01;;;;;;;6.20;2.80;;;;;;;11.07;67.51;101435.34;4899788;29;20442;-69
2021/12/02 04:39:29;;;;;;;3.78;0.90;;;;;;;11.09;67.17;101441.53;4911427;29;20607;-69
2021/12/02 04:41:56;;;;;;;6.75;1.40;;;;;;;11.10;67.16;101439.78;4929697;29;20507;-69
2021/12/02 04:44:24;;;;;;;4.63;1.35;;;;;;;11.08;67.50;101442.41;4928469;29;20067;-69
2021/12/02 04:46:53;;;;;;;7.13;1.20;;;;;;;11.08;67.17;101453.00;4922777;29;20515;-69
2021/12/02 04:49:21;;;;;;;2.35;1.17;;;;;;;11.07;67.61;101447.66;4915984;29;20044;-69
2021/12/02 04:51:51;;;;;;;4.10;0.98;;;;;;;11.08;67.91;101441.53;4926127;29;20550;-69
2021/12/02 04:54:19;;;;;;;6.20;1.02;;;;;;;11.03;67.52;101454.59;4910050;29;20040;-69
2021/12/02 04:56:47;;;;;;;5.53;1.05;;;;;;;11.00;67.67;101443.97;4926805;29;20555;-69
2021/12/02 04:59:14;;;;;;;5.28;1.27;;;;;;;11.02;68.53;101451.94;4930370;29;20054;-70
2021/12/02 05:01:42;;;;;;;5.13;1.08;;;;;;;11.07;67.71;101447.66;4912274;29;20113;-70
2021/12/02 05:04:09;;;;;;;7.55;1.30;;;;;;;11.05;68.53;101452.91;4902201;29;20046;-69
2021/12/02 05:06:37;;;;;;;7.05;1.33;;;;;;;11.06;68.80;101453.78;4894767;29;20055;-69
2021/12/02 05:09:06;;;;;;;6.60;1.60;;;;;;;11.06;68.51;101454.69;4877675;29;20408;-69
2021/12/02 05:11:34;;;;;;;9.02;1.73;;;;;;;11.08;68.32;101460.03;4881484;29;20405;-69
2021/12/02 05:14:02;;;;;;;8.93;2.10;;;;;;;11.07;68.82;101460.88;4886845;29;20049;-69
2021/12/02 05:16:30;;;;;;;8.32;1.30;;;;;;;11.08;68.24;101467.94;4907963;29;20492;-69
2021/12/02 05:18:58;;;;;;;4.47;1.50;;;;;;;11.13;68.06;101466.31;4894079;29;20763;-69
2021/12/02 05:21:25;;;;;;;10.63;2.38;;;;;;;11.16;68.04;101471.66;4899038;29;20049;-69
2021/12/02 05:23:54;;;;;;;6.30;1.85;;;;;;;11.19;67.79;101464.72;4909764;29;20732;-69
2021/12/02 05:26:24;;;;;;;4.90;1.55;;;;;;;11.22;68.14;101473.56;4899786;29;20080;-69
2021/12/02 05:28:52;;;;;;;2.70;1.05;;;;;;;11.23;68.02;101477.97;4925512;29;20095;-70
2021/12/02 05:31:21;;;;;;;3.28;1.05;;;;;;;11.22;67.77;101469.19;4894806;29;20075;-70
2021/12/02 05:33:49;;;;;;;5.88;2.20;;;;;;;11.27;68.16;101474.56;4905990;29;20048;-70
2021/12/02 05:36:17;;;;;;;5.75;2.28;;;;;;;11.32;67.46;101472.91;4902514;29;20147;-70
2021/12/02 05:38:45;;;;;;;10.50;4.07;;;;;;;11.33;67.52;101483.53;4913639;29;20052;-69
2021/12/02 05:41:14;;;;;;;17.75;9.43;;;;;;;11.32;67.29;101492.31;4898902;29;20067;-70
2021/12/02 05:43:44;;;;;;;18.95;11.35;;;;;;;11.32;67.46;101496.72;4909908;29;20056;-70
2021/12/02 05:46:12;;;;;;;20.55;12.23;;;;;;;11.27;67.73;101499.25;4895983;29;20068;-70
2021/12/02 05:48:40;;;;;;;16.63;10.10;;;;;;;11.28;67.81;101497.50;4896830;29;20808;-69
2021/12/02 05:51:08;;;;;;;16.50;10.25;;;;;;;11.31;67.81;101502.84;4917807;29;20136;-70
2021/12/02 05:53:35;;;;;;;16.30;7.55;;;;;;;11.32;68.25;101499.34;4921062;29;20135;-70
2021/12/02 05:56:03;;;;;;;14.07;9.55;;;;;;;11.34;67.75;101498.56;4907447;29;20144;-70
2021/12/02 05:58:31;;;;;;;20.10;13.50;;;;;;;11.38;68.12;101504.78;4898284;29;20040;-69
2021/12/02 06:01:00;;;;;;;26.83;18.67;;;;;;;11.45;68.02;101501.44;4897613;29;20071;-70
2021/12/02 06:03:28;;;;;;;45.70;37.13;;;;;;;11.66;67.41;101499.31;4920889;29;20048;-70
2021/12/02 06:05:56;;;;;;;41.63;28.52;;;;;;;11.96;67.75;101512.34;4896844;29;20044;-70
2021/12/02 06:08:24;;;;;;;51.95;40.85;;;;;;;12.25;67.65;101500.63;4918996;29;20088;-69
2021/12/02 06:10:52;;;;;;;39.40;28.77;;;;;;;12.56;67.57;101509.19;4909855;29;20119;-70
2021/12/02 06:13:20;;;;;;;44.72;32.83;;;;;;;12.82;67.36;101505.25;4914786;29;20056;-70
2021/12/02 06:15:48;;;;;;;50.67;41.85;;;;;;;13.03;67.06;101500.34;4913832;29;20508;-70
2021/12/02 06:18:17;;;;;;;28.98;21.63;;;;;;;13.26;66.94;101502.56;4915687;29;20040;-69
2021/12/02 06:20:50;;;;;;;19.88;13.32;;;;;;;13.47;66.51;101502.88;4914846;29;20048;-70
2021/12/02 06:23:18;;;;;;;12.10;10.23;;;;;;;13.66;66.07;101501.38;4921584;29;20131;-70
2021/12/02 06:25:47;;;;;;;9.10;4.78;;;;;;;13.81;65.11;101504.28;4933722;29;20059;-71
2021/12/02 06:28:15;;;;;;;6.97;4.20;;;;;;;13.92;64.69;101507.97;4923648;29;20044;-70
2021/12/02 06:30:46;;;;;;;6.10;3.25;;;;;;;14.09;64.32;101513.50;4910976;29;20051;-70
2021/12/02 06:33:14;;;;;;;9.00;4.32;;;;;;;14.30;64.03;101513.81;4900203;29;20417;-70
2021/12/02 06:35:44;;;;;;;16.67;11.00;;;;;;;14.52;63.72;101520.28;4913414;29;20056;-70
2021/12/02 06:38:12;;;;;;;14.40;11.05;;;;;;;14.73;63.20;101521.41;4905957;29;20800;-70
2021/12/02 06:40:42;;;;;;;8.80;5.60;;;;;;;14.92;62.49;101529.56;4914271;29;20048;-70
2021/12/02 06:43:10;;;;;;;22.38;17.17;;;;;;;15.03;61.60;101526.13;4913816;29;20040;-70
2021/12/02 06:45:38;;;;;;;19.63;11.98;;;;;;;15.23;60.98;101523.66;4913765;29;20044;-71
2021/12/02 06:48:06;;;;;;;15.52;10.48;;;;;;;15.34;60.61;101519.34;4908945;29;20044;-71
2021/12/02 06:50:36;;;;;;;13.40;7.38;;;;;;;15.43;60.33;101518.50;4910703;29;20123;-70
2021/12/02 06:53:06;;;;;;;7.78;4.60;;;;;;;15.64;59.69;101517.81;4913197;29;20095;-71
2021/12/02 06:55:34;;;;;;;9.65;5.80;;;;;;;15.83;59.67;101522.38;4896837;29;20084;-70
2021/12/02 06:58:02;;;;;;;12.90;7.53;;;;;;;16.00;59.01;101520.72;4914341;29;20662;-70
2021/12/02 07:00:30;;;;;;;15.23;8.05;;;;;;;16.20;58.50;101515.50;4914466;29;20437;-70
2021/12/02 07:02:58;;;;;;;13.27;9.77;;;;;;;16.45;58.13;101522.72;4913753;29;20516;-70
2021/12/02 07:05:26;;;;;;;24.90;20.80;;;;;;;16.57;57.85;101521.84;4904397;29;20051;-70
2021/12/02 07:07:53;;;;;;;19.75;14.82;;;;;;;16.71;57.88;101522.81;4904171;29;20087;-70
2021/12/02 07:10:25;;;;;;;12.50;7.43;;;;;;;16.92;57.65;101530.00;4913109;29;20409;-70
2021/12/02 07:12:56;;;;;;;6.22;2.95;;;;;;;17.09;57.08;101529.13;4898735;29;20501;-70
2021/12/02 07:15:28;;;;;;;2.13;0.70;;;;;;;17.31;56.39;101530.03;4918833;29;20047;-70
2021/12/02 07:17:58;;;;;;;4.60;0.77;;;;;;;17.51;55.44;101522.91;4900154;29;20099;-70
2021/12/02 07:20:27;;;;;;;5.18;0.95;;;;;;;17.69;54.85;101523.81;4894817;29;20153;-70
2021/12/02 07:22:55;;;;;;;5.10;1.20;;;;;;;17.90;53.75;101515.78;4893061;29;20048;-70
2021/12/02 07:25:24;;;;;;;4.65;1.27;;;;;;;18.13;53.56;101518.34;4891678;29;20406;-71
2021/12/02 07:27:52;;;;;;;4.35;1.92;;;;;;;18.36;52.50;101521.84;4889496;29;20136;-70
2021/12/02 07:30:20;;;;;;;4.40;1.85;;;;;;;18.50;52.38;101520.03;4888680;29;20045;-70
2021/12/02 07:32:53;;;;;;;3.90;1.25;;;;;;;18.84;51.45;101525.22;4893035;29;20049;-68
2021/12/02 07:35:21;;;;;;;4.28;0.85;;;;;;;19.05;50.82;101525.94;4891930;29;20049;-68
2021/12/02 07:37:51;;;;;;;3.78;0.80;;;;;;;19.21;49.92;101526.75;4885011;29;20453;-68
2021/12/02 07:40:20;;;;;;;5.05;0.63;;;;;;;19.40;49.58;101530.16;4907628;29;20044;-67
2021/12/02 07:42:53;;;;;;;5.65;1.08;;;;;;;19.55;49.20;101538.09;4894049;29;20108;-67
2021/12/02 07:45:23;;;;;;;3.72;0.80;;;;;;;19.74;48.41;101537.03;4905982;29;20051;-68
2021/12/02 07:47:51;;;;;;;5.55;0.80;;;;;;;19.86;47.56;101536.91;4877108;29;20055;-67
2021/12/02 07:50:21;;;;;;;4.28;0.90;;;;;;;20.02;47.41;101531.38;4911365;29;20044;-68
2021/12/02 07:52:52;;;;;;;4.20;0.60;;;;;;;20.22;46.92;101529.34;4926426;29;20071;-69
2021/12/02 07:55:22;;;;;;;4.75;0.60;;;;;;;20.43;46.53;101523.75;4912098;29;20047;-69
2021/12/02 07:57:52;;;;;;;6.05;0.60;;;;;;;20.56;45.63;101520.00;4894372;29;20112;-69
2021/12/02 08:00:22;;;;;;;4.20;0.77;;;;;;;20.66;44.43;101529.72;4908888;29;20126;-69
2021/12/02 08:02:51;;;;;;;5.05;0.60;;;;;;;20.78;42.98;101525.09;4926361;29;20059;-69
2021/12/02 08:05:21;;;;;;;2.85;0.60;;;;;;;20.90;42.28;101523.13;4902439;29;20050;-69
2021/12/02 08:07:49;;;;;;;3.10;0.45;;;;;;;21.04;41.83;101525.59;4893700;29;20050;-69
2021/12/02 08:10:17;;;;;;;14.23;1.02;;;;;;;21.21;42.26;101534.28;4896444;29;20096;-69
2021/12/02 08:12:50;;;;;;;2.97;0.60;;;;;;;21.40;40.92;101519.66;4911416;29;20107;-69
2021/12/02 08:15:22;;;;;;;4.13;0.45;;;;;;;21.57;40.91;101516.69;4911273;29;20493;-68
2021/12/02 08:17:51;;;;;;;2.35;0.63;;;;;;;21.64;40.35;101520.16;4904975;29;20454;-69
2021/12/02 08:20:23;;;;;;;8.45;0.70;;;;;;;21.76;40.01;101511.88;4894463;29;20179;-69
2021/12/02 08:22:52;;;;;;;2.05;0.50;;;;;;;21.88;39.45;101517.91;4909892;29;20437;-69
2021/12/02 08:25:23;;;;;;;3.65;0.90;;;;;;;21.94;38.43;101514.19;4906444;29;20504;-69
2021/12/02 08:27:51;;;;;;;5.32;0.80;;;;;;;22.06;38.33;101505.03;4909300;29;20131;-69
2021/12/02 08:30:24;;;;;;;3.35;0.80;;;;;;;22.12;37.33;101505.81;4907732;29;20452;-68
2021/12/02 08:32:52;;;;;;;2.90;1.00;;;;;;;22.03;37.10;101499.75;4909669;29;20405;-68
2021/12/02 08:35:20;;;;;;;1.60;0.43;;;;;;;22.09;37.54;101505.88;4911753;29;20702;-69
2021/12/02 08:37:51;;;;;;;4.65;1.08;;;;;;;22.17;37.39;101498.56;4890458;29;20048;-69
2021/12/02 08:40:23;;;;;;;5.10;0.68;;;;;;;22.27;36.46;101499.22;4901156;29;20098;-69
2021/12/02 08:42:50;;;;;;;3.47;0.70;;;;;;;22.25;36.03;101499.25;4907994;29;20083;-69
2021/12/02 08:45:18;;;;;;;4.43;1.20;;;;;;;22.35;36.43;101489.19;4907311;29;20806;-69
2021/12/02 08:47:47;;;;;;;3.97;1.33;;;;;;;22.48;36.86;101489.81;4904531;29;20047;-69
2021/12/02 08:50:18;;;;;;;4.22;1.85;;;;;;;22.57;36.30;101493.22;4894487;29;20044;-69
2021/12/02 08:52:46;;;;;;;4.63;1.50;;;;;;;22.61;36.40;101491.31;4892543;29;20048;-68
2021/12/02 08:55:15;;;;;;;4.18;2.08;;;;;;;22.73;36.70;101485.69;4890046;29;20524;-69
2021/12/02 08:57:42;;;;;;;3.70;1.45;;;;;;;22.87;36.33;101483.56;4884685;29;20056;-69
2021/12/02 09:00:13;;;;;;;4.10;1.50;;;;;;;22.92;36.41;101481.66;4891576;29;20123;-68
2021/12/02 09:02:41;;;;;;;3.78;1.40;;;;;;;22.91;36.77;101481.69;4903529;29;20059;-69
2021/12/02 09:05:11;;;;;;;5.15;1.30;;;;;;;23.03;36.44;101479.59;4888206;29;20049;-68
2021/12/02 09:07:39;;;;;;;4.70;1.50;;;;;;;23.08;36.74;101481.28;4913532;29;20072;-69
2021/12/02 09:10:09;;;;;;;4.13;2.10;;;;;;;23.16;36.92;101476.59;4891699;29;20046;-68
2021/12/02 09:12:37;;;;;;;4.55;1.35;;;;;;;23.21;36.72;101477.38;4897295;29;20400;-68
2021/12/02 09:15:09;;;;;;;4.10;1.52;;;;;;;23.26;36.78;101476.31;4903863;29;20047;-69
2021/12/02 09:17:37;;;;;;;3.08;0.82;;;;;;;23.43;36.84;101479.47;4894838;29;20042;-68
2021/12/02 09:20:05;;;;;;;6.45;1.55;;;;;;;23.70;36.41;101472.47;4911332;29;20055;-69
2021/12/02 09:22:35;;;;;;;3.90;1.02;;;;;;;23.95;36.13;101471.81;4913519;29;20057;-69
2021/12/02 09:25:04;;;;;;;3.70;1.10;;;;;;;24.08;35.59;101471.44;4926991;29;20040;-70
2021/12/02 09:27:32;;;;;;;3.60;1.10;;;;;;;24.18;35.25;101470.22;4920249;29;20107;-68
2021/12/02 09:30:00;;;;;;;4.43;1.65;;;;;;;24.10;35.43;101471.38;4903456;29;20057;-68
2021/12/02 09:32:28;;;;;;;5.18;0.90;;;;;;;24.10;35.12;101472.25;4892099;29;20124;-68
2021/12/02 09:34:56;;;;;;;1.73;0.57;;;;;;;23.67;34.57;101460.91;4907931;29;20505;-68
2021/12/02 09:37:24;;;;;;;2.80;0.60;;;;;;;23.13;35.23;101456.00;4901997;29;20047;-68
2021/12/02 09:39:54;;;;;;;4.07;0.60;;;;;;;22.67;35.74;101456.19;4893609;29;20040;-68
2021/12/02 09:42:22;;;;;;;4.50;1.27;;;;;;;22.45;36.32;101455.78;4895001;29;20056;-68
2021/12/02 09:44:55;;;;;;;3.00;0.63;;;;;;;22.25;36.46;101458.91;4899036;29;20115;-69
2021/12/02 09:47:23;;;;;;;3.33;1.10;;;;;;;21.99;36.27;101460.38;4916999;29;20532;-69
2021/12/02 09:49:51;;;;;;;5.57;0.60;;;;;;;21.77;36.35;101463.47;4894573;29;20084;-69
2021/12/02 09:52:29;;;;;;;2.85;0.75;;;;;;;21.71;36.87;101457.31;4903842;29;20045;-67
2021/12/02 09:55:03;;;;;;;4.28;1.00;;;;;;;21.74;37.40;101459.94;4896446;29;20040;-67
2021/12/02 09:57:35;;;;;;;4.40;1.48;;;;;;;21.72;37.59;101459.09;4904157;29;20429;-67
2021/12/02 10:00:04;;;;;;;3.10;0.88;;;;;;;21.67;37.18;101452.88;4910442;29;20044;-67
2021/12/02 10:02:41;;;;;;;5.00;1.08;;;;;;;21.69;37.27;101456.44;4911287;29;20143;-67
2021/12/02 10:05:13;;;;;;;3.28;0.90;;;;;;;21.70;37.89;101458.22;4923781;29;20045;-67
2021/12/02 10:07:54;;;;;;;6.03;1.15;;;;;;;21.65;37.46;101452.06;4911699;29;20127;-67
2021/12/02 10:10:31;;;;;;;4.95;1.35;;;;;;;21.50;38.04;101446.97;4904120;29;20037;-67
2021/12/02 10:13:14;;;;;;;5.70;3.45;;;;;;;21.33;38.99;101442.75;4892235;29;20131;-67
2021/12/02 10:15:51;;;;;;;9.18;2.55;;;;;;;21.24;39.24;101436.69;4908211;29;20056;-67
2021/12/02 10:18:21;;;;;;;5.35;2.58;;;;;;;21.17;39.32;101443.06;4911215;29;20064;-67
2021/12/02 10:20:51;;;;;;;5.47;3.30;;;;;;;21.12;40.45;101437.75;4909477;29;20062;-67
2021/12/02 10:23:23;;;;;;;5.72;1.35;;;;;;;21.08;41.24;101426.16;4916911;29;20074;-68
2021/12/02 10:25:57;;;;;;;7.47;1.25;;;;;;;20.90;42.11;101422.91;4907415;29;20075;-68
2021/12/02 10:28:27;;;;;;;2.90;1.00;;;;;;;20.79;42.89;101424.88;4914868;29;20135;-68
2021/12/02 10:30:57;;;;;;;3.17;1.00;;;;;;;20.67;43.41;101420.59;4889939;29;20406;-67
2021/12/02 10:33:33;;;;;;;10.95;4.82;;;;;;;20.48;44.33;101419.94;4915403;29;20047;-68
2021/12/02 10:36:02;;;;;;;32.13;21.52;;;;;;;20.20;45.39;101403.34;4910482;29;20048;-68
2021/12/02 10:38:38;;;;;;;7.05;3.15;;;;;;;20.06;45.82;101410.69;4909188;29;20040;-68
2021/12/02 10:41:11;;;;;;;187.45;95.85;;;;;;;19.96;46.02;101406.34;4914923;29;20052;-68
2021/12/02 10:44:06;;;;;;;105.07;57.50;;;;;;;19.84;46.85;101406.50;4913024;29;20072;-68
2021/12/02 10:46:35;;;;;;;25.20;13.45;;;;;;;19.77;47.10;101413.72;4894778;29;20048;-68
2021/12/02 10:49:04;;;;;;;214.52;123.85;;;;;;;19.79;47.15;101403.88;4900336;29;20421;-68
2021/12/02 10:51:43;;;;;;;12.65;8.00;;;;;;;19.82;47.35;101398.47;4907845;29;20032;-68
2021/12/02 10:54:15;;;;;;;13.93;9.43;;;;;;;19.81;47.43;101402.06;4904588;29;20114;-68
2021/12/02 10:56:46;;;;;;;13.50;10.25;;;;;;;19.89;47.59;101394.81;4909857;29;20059;-68
2021/12/02 10:59:33;;;;;;;14.63;10.60;;;;;;;20.01;47.66;101392.91;4906425;29;20100;-68
2021/12/02 11:02:04;;;;;;;21.90;18.13;;;;;;;20.16;47.40;101393.56;4917240;29;20103;-69
2021/12/02 11:04:38;;;;;;;11.35;7.90;;;;;;;20.18;47.22;101396.22;4912686;29;20064;-68
2021/12/02 11:07:11;;;;;;;8.18;6.35;;;;;;;20.19;46.93;101388.16;4895554;29;20048;-68
2021/12/02 11:09:40;;;;;;;15.73;12.85;;;;;;;20.28;46.75;101388.03;4911488;29;20040;-68
2021/12/02 11:12:13;;;;;;;11.20;7.70;;;;;;;20.50;47.21;101379.69;4897104;29;20052;-68
2021/12/02 11:14:52;;;;;;;4.43;2.77;;;;;;;20.70;46.94;101377.59;4911026;29;20127;-69
2021/12/02 11:17:20;;;;;;;9.13;4.85;;;;;;;20.66;46.49;101376.78;4894324;29;20121;-68
2021/12/02 11:19:49;;;;;;;3.03;1.50;;;;;;;20.53;46.49;101377.88;4901901;29;20143;-68
2021/12/02 11:22:19;;;;;;;2.45;1.10;;;;;;;20.39;46.77;101362.91;4906999;29;20516;-68
2021/12/02 11:24:48;;;;;;;4.35;0.70;;;;;;;20.20;46.98;101371.19;4883309;29;20464;-69
2021/12/02 11:27:20;;;;;;;3.45;0.80;;;;;;;20.13;47.37;101365.91;4891372;29;20190;-69
2021/12/02 11:29:55;;;;;;;7.78;3.53;;;;;;;20.03;47.63;101364.25;4908794;29;20131;-68
2021/12/02 11:32:40;;;;;;;6.18;1.20;;;;;;;19.99;47.81;101363.44;4891874;29;20056;-68
2021/12/02 11:35:15;;;;;;;4.15;0.95;;;;;;;19.98;47.65;101360.75;4909776;29;20438;-68
2021/12/02 11:37:45;;;;;;;4.03;0.95;;;;;;;20.02;47.83;101358.00;4875130;29;20060;-68